createdAt,value
2018-02-06T00:01:29.740Z,60.13
2018-02-06T00:03:55.704Z,60.40
2018-02-06T00:06:21.638Z,60.22
2018-02-06T00:08:47.674Z,60.64
2018-02-06T00:11:13.634Z,60.89
2018-02-06T00:13:39.566Z,61.56
2018-02-06T00:16:05.498Z,60.61
2018-02-06T00:18:31.462Z,60.80
2018-02-06T00:20:57.444Z,61.26
2018-02-06T00:23:23.376Z,60.36
2018-02-06T00:25:49.315Z,61.40
2018-02-06T00:28:15.299Z,61.21
2018-02-06T00:30:41.278Z,61.67
2018-02-06T00:33:07.234Z,62.00
2018-02-06T00:35:33.176Z,60.99
2018-02-06T00:37:59.156Z,59.89
2018-02-06T00:40:25.101Z,59.99
2018-02-06T00:42:51.063Z,60.23
2018-02-06T00:45:17.021Z,61.62
2018-02-06T00:47:43.009Z,60.95
2018-02-06T00:50:08.989Z,60.36
2018-02-06T00:52:34.974Z,60.32
2018-02-06T00:55:00.934Z,60.17
2018-02-06T00:57:26.898Z,60.94
2018-02-06T00:59:52.850Z,61.80
2018-02-06T01:02:18.843Z,60.71
2018-02-06T01:04:44.782Z,61.26
2018-02-06T01:07:10.748Z,61.57
2018-02-06T01:09:36.687Z,62.55
2018-02-06T01:12:02.647Z,63.13
2018-02-06T01:14:28.657Z,61.87
2018-02-06T01:16:54.620Z,62.75
2018-02-06T01:19:20.555Z,62.79
2018-02-06T01:21:46.524Z,62.12
2018-02-06T01:24:12.464Z,61.49
2018-02-06T01:26:38.465Z,61.11
2018-02-06T01:29:04.380Z,59.42
2018-02-06T01:31:30.686Z,59.47
2018-02-06T01:33:56.656Z,60.33
2018-02-06T01:36:22.623Z,62.29
2018-02-06T01:38:48.591Z,62.01
2018-02-06T01:41:14.523Z,61.32
2018-02-06T01:43:40.498Z,62.13
2018-02-06T01:46:06.452Z,62.51
2018-02-06T01:48:32.385Z,62.00
2018-02-06T01:50:58.314Z,62.42
2018-02-06T01:53:24.269Z,62.89
2018-02-06T01:55:50.201Z,59.29
2018-02-06T01:58:16.124Z,59.61
2018-02-06T02:00:42.047Z,61.40
2018-02-06T02:03:07.998Z,62.92
2018-02-06T02:05:33.969Z,61.87
2018-02-06T02:07:59.901Z,60.07
2018-02-06T02:10:25.843Z,60.89
2018-02-06T02:12:51.771Z,61.63
2018-02-06T02:15:17.709Z,61.55
2018-02-06T02:17:43.655Z,62.04
2018-02-06T02:20:09.600Z,61.87
2018-02-06T02:22:35.539Z,59.60
2018-02-06T02:25:01.481Z,61.70
2018-02-06T02:27:27.439Z,61.01
2018-02-06T02:29:53.394Z,58.97
2018-02-06T02:32:19.351Z,60.67
2018-02-06T02:34:45.293Z,60.34
2018-02-06T02:37:11.231Z,60.26
2018-02-06T02:39:37.169Z,59.89
2018-02-06T04:38:48.387Z,60.50
2018-02-06T04:41:14.343Z,60.01
2018-02-06T04:43:40.331Z,60.78
2018-02-06T04:46:06.300Z,59.52
2018-02-06T04:48:32.246Z,60.63
2018-02-06T04:50:58.208Z,60.54
2018-02-06T04:53:24.151Z,60.56
2018-02-06T04:55:50.112Z,59.53
2018-02-06T04:58:16.055Z,59.10
2018-02-06T05:00:42.026Z,58.67
2018-02-06T05:03:07.963Z,58.64
2018-02-06T05:05:33.901Z,60.50
2018-02-06T05:07:59.861Z,61.58
2018-02-06T05:10:25.851Z,60.41
2018-02-06T05:12:51.799Z,61.19
2018-02-06T05:15:17.741Z,59.71
2018-02-06T05:17:43.681Z,59.09
2018-02-06T05:20:09.645Z,59.19
2018-02-06T05:22:35.611Z,60.74
2018-02-06T05:25:01.544Z,61.90
2018-02-06T05:27:27.502Z,61.28
2018-02-06T05:29:53.445Z,59.77
2018-02-06T05:32:19.392Z,58.58
2018-02-06T05:34:45.359Z,60.78
2018-02-06T05:37:11.311Z,61.51
2018-02-06T05:39:37.264Z,61.27
2018-02-06T05:42:03.195Z,62.56
2018-02-06T05:44:29.137Z,60.40
2018-02-06T05:46:55.101Z,59.88
2018-02-06T05:49:21.089Z,58.11
2018-02-06T05:51:47.038Z,58.38
2018-02-06T05:54:12.997Z,60.23
2018-02-06T05:56:38.973Z,59.77
2018-02-06T05:59:04.951Z,59.23
2018-02-06T06:01:30.878Z,59.90
2018-02-06T06:03:56.832Z,58.51
2018-02-06T06:06:22.809Z,58.52
2018-02-06T06:08:48.774Z,59.06
2018-02-06T06:11:14.715Z,58.62
2018-02-06T06:13:40.654Z,59.05
2018-02-06T06:16:06.593Z,59.56
2018-02-06T06:18:32.551Z,59.27
2018-02-06T06:20:58.521Z,59.71
2018-02-06T06:23:24.458Z,59.26
2018-02-06T06:25:50.399Z,59.95
2018-02-06T06:28:16.346Z,60.09
2018-02-06T06:30:42.324Z,60.54
2018-02-06T06:33:08.260Z,59.29
2018-02-06T06:35:34.196Z,60.09
2018-02-06T06:38:00.188Z,60.33
2018-02-06T06:40:26.182Z,63.58
2018-02-06T06:42:52.117Z,61.14
2018-02-06T06:45:18.046Z,61.71
2018-02-06T06:47:43.994Z,60.83
2018-02-06T06:50:09.923Z,60.48
2018-02-06T06:52:35.874Z,60.59
2018-02-06T06:55:01.831Z,59.50
2018-02-06T06:57:27.766Z,59.10
2018-02-06T06:59:53.813Z,59.99
2018-02-06T07:02:19.774Z,57.07
2018-02-06T07:04:45.712Z,58.85
2018-02-06T07:07:11.662Z,58.70
2018-02-06T07:09:37.610Z,59.44
2018-02-06T07:12:03.550Z,57.92
2018-02-06T07:14:29.503Z,58.48
2018-02-06T07:16:55.443Z,57.17
2018-02-06T07:19:21.390Z,56.40
2018-02-06T07:21:47.342Z,56.94
2018-02-06T07:24:13.302Z,57.13
2018-02-06T07:26:39.218Z,56.79
2018-02-06T07:29:05.158Z,55.64
2018-02-06T07:31:31.096Z,55.68
2018-02-06T07:33:57.078Z,55.03
2018-02-06T07:36:23.006Z,56.94
2018-02-06T07:38:48.948Z,54.71
2018-02-06T07:41:14.876Z,55.18
2018-02-06T07:43:40.846Z,55.00
2018-02-06T07:46:06.792Z,54.61
2018-02-06T07:48:32.732Z,53.87
2018-02-06T07:50:58.715Z,54.32
2018-02-06T07:53:24.704Z,55.85
2018-02-06T07:55:50.706Z,52.46
2018-02-06T07:58:16.620Z,52.99
2018-02-06T08:00:42.568Z,53.00
2018-02-06T08:03:08.536Z,52.58
2018-02-06T08:05:34.490Z,51.79
2018-02-06T08:08:00.432Z,53.85
2018-02-06T08:10:26.382Z,54.03
2018-02-06T08:12:52.328Z,54.63
2018-02-06T08:15:18.260Z,53.65
2018-02-06T08:17:44.230Z,54.22
2018-02-06T08:20:10.154Z,53.98
2018-02-06T08:22:36.138Z,54.72
2018-02-06T08:25:02.114Z,52.46
2018-02-06T08:27:28.046Z,52.53
2018-02-06T08:29:53.998Z,53.55
2018-02-06T08:32:19.930Z,54.19
2018-02-06T08:34:45.880Z,52.71
2018-02-06T08:37:11.807Z,53.54
2018-02-06T08:39:37.758Z,52.68
2018-02-06T08:42:03.731Z,52.84
2018-02-06T08:44:29.674Z,53.21
2018-02-06T08:46:55.622Z,54.19
2018-02-06T08:49:21.571Z,53.47
2018-02-06T08:51:47.521Z,52.99
2018-02-06T08:54:13.495Z,53.79
2018-02-06T08:56:39.434Z,53.04
2018-02-06T08:59:05.370Z,53.01
2018-02-06T09:01:31.306Z,52.41
2018-02-06T09:03:57.266Z,52.01
2018-02-06T09:06:23.213Z,51.82
2018-02-06T09:08:49.171Z,53.37
2018-02-06T09:11:15.168Z,50.99
2018-02-06T09:13:41.131Z,50.79
2018-02-06T09:16:07.072Z,52.16
2018-02-06T09:18:33.007Z,51.39
2018-02-06T09:20:58.946Z,51.06
2018-02-06T09:23:24.946Z,51.63
2018-02-06T09:25:50.863Z,51.08
2018-02-06T09:28:16.839Z,51.08
2018-02-06T09:30:42.779Z,51.05
2018-02-06T09:33:08.737Z,51.06
2018-02-06T09:35:34.690Z,50.22
2018-02-06T09:38:00.635Z,50.34
2018-02-06T09:40:26.590Z,50.18
2018-02-06T09:42:52.527Z,50.09
2018-02-06T09:45:18.496Z,51.09
2018-02-06T09:47:44.480Z,50.72
2018-02-06T09:50:10.449Z,51.70
2018-02-06T09:52:36.407Z,50.88
2018-02-06T09:55:02.349Z,50.43
2018-02-06T09:57:28.299Z,52.46
2018-02-06T09:59:54.248Z,51.03
2018-02-06T10:02:20.205Z,52.57
2018-02-06T10:04:46.154Z,52.77
2018-02-06T10:07:12.103Z,52.05
2018-02-06T10:09:38.036Z,51.83
2018-02-06T10:12:03.971Z,51.59
2018-02-06T10:14:29.911Z,51.10
2018-02-06T10:16:55.839Z,50.45
2018-02-06T10:19:21.768Z,51.51
2018-02-06T10:21:47.712Z,51.92
2018-02-06T10:24:13.658Z,52.08
2018-02-06T10:26:39.586Z,52.07
2018-02-06T10:29:05.529Z,51.64
2018-02-06T10:31:31.476Z,51.56
2018-02-06T10:33:57.422Z,52.56
2018-02-06T10:36:23.361Z,52.74
2018-02-06T10:38:49.312Z,51.84
2018-02-06T10:41:15.267Z,52.49
2018-02-06T10:43:41.190Z,53.20
2018-02-06T10:46:07.134Z,53.30
2018-02-06T10:48:33.091Z,52.55
2018-02-06T10:50:59.040Z,53.26
2018-02-06T10:53:24.960Z,51.87
2018-02-06T10:55:50.925Z,52.48
2018-02-06T10:58:16.848Z,52.88
2018-02-06T11:00:42.786Z,52.67
2018-02-06T11:03:08.714Z,53.94
2018-02-06T11:05:34.640Z,53.97
2018-02-06T11:08:00.564Z,53.50
2018-02-06T11:10:26.492Z,53.60
2018-02-06T11:12:52.421Z,53.57
2018-02-06T11:15:18.352Z,53.24
2018-02-06T11:17:44.320Z,54.47
2018-02-06T11:20:10.277Z,53.56
2018-02-06T11:22:36.253Z,54.05
2018-02-06T11:25:02.185Z,53.31
2018-02-06T11:27:28.121Z,53.49
2018-02-06T11:29:54.115Z,54.57
2018-02-06T11:32:20.073Z,55.25
2018-02-06T11:34:46.024Z,53.90
2018-02-06T11:37:12.135Z,54.04
2018-02-06T11:39:38.141Z,54.42
2018-02-06T11:42:04.103Z,54.05
2018-02-06T11:44:30.081Z,54.41
2018-02-06T11:46:56.079Z,55.09
2018-02-06T11:49:22.013Z,55.06
2018-02-06T11:51:47.961Z,56.80
2018-02-06T11:54:13.895Z,56.96
2018-02-06T11:56:39.821Z,56.29
2018-02-06T11:59:05.759Z,56.83
2018-02-06T12:01:31.681Z,55.93
2018-02-06T12:03:57.646Z,55.04
2018-02-06T12:06:23.600Z,54.31
2018-02-06T12:08:49.535Z,54.60
2018-02-06T12:11:15.461Z,55.15
2018-02-06T12:13:41.402Z,55.43
2018-02-06T12:16:07.350Z,55.51
2018-02-06T12:18:33.313Z,54.83
2018-02-06T12:20:59.250Z,54.30
2018-02-06T12:23:25.237Z,55.21
2018-02-06T12:25:51.173Z,55.29
2018-02-06T12:28:17.120Z,54.75
2018-02-06T12:30:43.045Z,54.51
2018-02-06T12:33:08.995Z,53.60
2018-02-06T12:35:34.922Z,53.76
2018-02-06T12:38:00.875Z,53.81
2018-02-06T12:40:26.809Z,54.03
2018-02-06T12:42:52.789Z,54.08
2018-02-06T12:45:18.747Z,53.70
2018-02-06T12:47:44.705Z,53.51
2018-02-06T12:50:10.641Z,53.27
2018-02-06T12:52:36.603Z,53.81
2018-02-06T12:55:02.534Z,53.92
2018-02-06T12:57:28.511Z,53.59
2018-02-06T12:59:54.481Z,53.99
2018-02-06T13:02:20.485Z,53.90
2018-02-06T13:04:46.477Z,52.71
2018-02-06T13:07:12.450Z,52.67
2018-02-06T13:09:38.376Z,52.77
2018-02-06T13:12:04.303Z,52.25
2018-02-06T13:14:30.215Z,51.69
2018-02-06T13:16:56.147Z,51.03
2018-02-06T13:19:22.068Z,51.37
2018-02-06T13:21:48.007Z,51.25
2018-02-06T13:24:13.944Z,51.22
2018-02-06T13:26:39.921Z,51.43
2018-02-06T13:29:05.879Z,50.49
2018-02-06T13:31:31.813Z,51.27
2018-02-06T13:33:57.755Z,51.35
2018-02-06T13:36:23.677Z,50.18
2018-02-06T13:38:49.605Z,50.76
2018-02-06T13:41:15.565Z,49.91
2018-02-06T13:43:41.817Z,50.36
2018-02-06T13:46:07.753Z,49.89
2018-02-06T13:48:33.683Z,50.68
2018-02-06T13:50:59.653Z,49.42
2018-02-06T13:53:25.571Z,49.37
2018-02-06T13:55:51.511Z,49.34
2018-02-06T13:58:17.445Z,48.56
2018-02-06T14:00:43.383Z,48.88
2018-02-06T14:03:09.322Z,48.77
2018-02-06T14:05:35.269Z,48.10
2018-02-06T14:08:01.224Z,47.67
2018-02-06T14:10:27.162Z,48.05
2018-02-06T14:12:53.097Z,48.14
2018-02-06T14:15:19.023Z,48.53
2018-02-06T14:17:44.937Z,48.29
2018-02-06T14:20:10.881Z,48.58
2018-02-06T14:22:36.813Z,48.35
2018-02-06T14:25:02.758Z,48.22
2018-02-06T14:27:28.714Z,48.72
2018-02-06T14:29:54.645Z,48.92
2018-02-06T14:32:20.600Z,48.31
2018-02-06T14:34:46.552Z,48.88
2018-02-06T14:37:12.471Z,48.40
2018-02-06T14:39:38.430Z,48.38
2018-02-06T14:42:04.352Z,48.89
2018-02-06T14:44:30.312Z,48.49
2018-02-06T14:46:56.252Z,48.56
2018-02-06T14:49:22.187Z,48.76
2018-02-06T14:51:48.139Z,48.99
2018-02-06T14:54:14.092Z,49.45
2018-02-06T14:56:40.050Z,48.89
2018-02-06T14:59:05.997Z,49.41
2018-02-06T15:01:31.938Z,49.31
2018-02-06T15:03:57.860Z,49.70
2018-02-06T15:06:23.832Z,50.52
2018-02-06T15:08:49.792Z,50.41
2018-02-06T15:11:15.733Z,50.54
2018-02-06T15:13:41.661Z,51.15
2018-02-06T15:16:07.621Z,50.39
2018-02-06T15:18:33.563Z,51.09
2018-02-06T15:20:59.507Z,50.49
2018-02-06T15:23:25.438Z,50.70
2018-02-06T15:25:51.392Z,50.36
2018-02-06T15:28:17.332Z,50.27
2018-02-06T15:30:43.272Z,51.12
2018-02-06T15:33:09.214Z,51.09
2018-02-06T15:35:35.170Z,50.64
2018-02-06T15:38:01.100Z,50.98
2018-02-06T15:40:27.042Z,51.16
2018-02-06T15:42:53.004Z,50.64
2018-02-06T15:45:18.942Z,50.98
2018-02-06T15:47:44.904Z,51.47
2018-02-06T15:50:10.866Z,51.08
2018-02-06T15:52:36.816Z,51.70
2018-02-06T15:55:02.754Z,51.27
2018-02-06T15:57:28.672Z,51.62
2018-02-06T15:59:54.652Z,51.16
2018-02-06T16:02:20.586Z,50.86
2018-02-06T16:04:46.528Z,51.03
2018-02-06T16:07:12.483Z,51.35
2018-02-06T16:09:38.434Z,51.68
2018-02-06T16:12:04.398Z,51.70
2018-02-06T16:14:30.344Z,51.46
2018-02-06T16:16:56.298Z,51.16
2018-02-06T16:19:22.242Z,51.00
2018-02-06T16:21:48.178Z,50.95
2018-02-06T16:24:14.106Z,52.04
2018-02-06T16:26:40.047Z,51.21
2018-02-06T16:29:05.992Z,50.96
2018-02-06T16:31:31.907Z,51.88
2018-02-06T16:33:57.846Z,51.52
2018-02-06T16:36:23.818Z,51.13
2018-02-06T16:38:49.766Z,51.42
2018-02-06T16:41:15.753Z,51.03
2018-02-06T16:43:41.708Z,51.39
2018-02-06T16:46:07.640Z,52.04
2018-02-06T16:48:33.594Z,51.56
2018-02-06T16:50:59.550Z,51.51
2018-02-06T16:53:25.520Z,51.33
2018-02-06T16:55:51.453Z,52.08
2018-02-06T16:58:17.396Z,52.13
2018-02-06T17:00:43.345Z,52.29
2018-02-06T17:03:09.283Z,50.85
2018-02-06T17:05:35.254Z,53.03
2018-02-06T17:08:01.232Z,51.68
2018-02-06T17:10:27.169Z,52.47
2018-02-06T17:12:53.122Z,52.08
2018-02-06T17:15:19.152Z,52.85
2018-02-06T17:17:45.147Z,54.11
2018-02-06T17:20:11.090Z,54.29
2018-02-06T17:22:37.081Z,53.46
2018-02-06T17:25:03.087Z,54.08
2018-02-06T17:27:29.028Z,54.58
2018-02-06T17:32:25.194Z,55.34
2018-02-06T17:34:51.174Z,54.65
2018-02-06T17:37:17.105Z,55.08
2018-02-06T17:39:43.060Z,54.68
2018-02-06T17:42:08.997Z,54.60
2018-02-06T17:44:34.933Z,55.59
2018-02-06T17:47:00.857Z,56.16
2018-02-06T17:49:26.813Z,56.25
2018-02-06T17:51:52.768Z,54.00
2018-02-06T17:54:18.750Z,54.61
2018-02-06T17:56:44.703Z,55.61
2018-02-06T17:59:11.720Z,56.17
2018-02-06T18:01:37.717Z,55.19
2018-02-06T18:04:03.696Z,54.72
2018-02-06T18:06:29.718Z,53.97
2018-02-06T18:08:55.675Z,52.43
2018-02-06T18:11:21.664Z,52.20
2018-02-06T18:13:47.621Z,52.61
2018-02-06T18:16:13.551Z,53.38
2018-02-06T18:18:39.524Z,54.12
2018-02-06T18:21:05.493Z,53.26
2018-02-06T18:23:31.484Z,53.60
2018-02-06T18:25:57.471Z,52.99
2018-02-06T18:28:23.440Z,53.00
2018-02-06T18:30:49.432Z,53.34
2018-02-06T18:33:15.390Z,55.49
2018-02-06T18:35:41.336Z,55.68
2018-02-06T18:38:07.273Z,53.96
2018-02-06T18:40:33.216Z,54.63
2018-02-06T18:42:59.309Z,53.77
2018-02-06T18:45:25.232Z,53.74
2018-02-06T18:47:51.200Z,53.13
2018-02-06T18:50:17.127Z,53.29
2018-02-06T18:52:43.122Z,54.48
2018-02-06T18:55:09.070Z,53.69
2018-02-06T18:57:35.018Z,54.24
2018-02-06T19:00:02.152Z,55.09
2018-02-06T19:02:28.192Z,55.16
2018-02-06T19:04:54.825Z,55.82
2018-02-06T19:07:20.751Z,56.50
2018-02-06T19:09:46.772Z,56.23
2018-02-06T19:12:12.703Z,55.64
2018-02-06T19:14:38.684Z,57.33
2018-02-06T19:17:04.686Z,56.26
2018-02-06T19:19:30.627Z,56.35
2018-02-06T19:21:56.612Z,56.76
2018-02-06T19:24:22.542Z,55.77
2018-02-06T19:26:48.581Z,54.52
2018-02-06T19:29:14.580Z,54.79
2018-02-06T19:31:40.540Z,55.32
2018-02-06T19:34:06.515Z,56.05
2018-02-06T19:36:32.456Z,55.38
2018-02-06T19:38:58.514Z,56.96
2018-02-06T19:41:24.559Z,55.97
2018-02-06T19:43:50.502Z,55.38
2018-02-06T19:46:16.466Z,55.48
2018-02-06T19:48:42.512Z,54.46
2018-02-06T19:51:08.463Z,56.18
2018-02-06T19:53:34.447Z,56.74
2018-02-06T19:56:00.401Z,56.67
2018-02-06T19:58:26.396Z,56.83
2018-02-06T20:00:52.500Z,57.06
2018-02-06T20:03:18.547Z,56.65
2018-02-06T20:05:44.496Z,55.44
2018-02-06T20:08:10.463Z,57.04
2018-02-06T20:10:36.399Z,55.62
2018-02-06T20:13:02.409Z,54.41
2018-02-06T20:15:28.349Z,54.97
2018-02-06T20:17:54.332Z,54.95
2018-02-06T20:20:20.293Z,56.50
2018-02-06T20:22:46.287Z,56.24
2018-02-06T20:25:12.267Z,54.60
2018-02-06T20:27:38.239Z,54.96
2018-02-06T20:30:04.259Z,56.63
2018-02-06T20:32:30.320Z,56.23
2018-02-06T20:34:56.317Z,55.90
2018-02-06T20:37:22.263Z,57.72
2018-02-06T20:39:48.245Z,58.13
2018-02-06T20:42:14.179Z,58.09
2018-02-06T20:44:40.117Z,57.46
2018-02-06T20:47:06.067Z,57.57
2018-02-06T20:49:32.019Z,58.25
2018-02-06T20:51:57.971Z,57.38
2018-02-06T20:54:23.953Z,56.67
2018-02-06T20:56:49.949Z,56.35
2018-02-06T20:59:15.901Z,57.08
2018-02-06T21:01:41.887Z,57.14
2018-02-06T21:04:07.829Z,56.93
2018-02-06T21:06:33.831Z,57.48
2018-02-06T21:08:59.792Z,57.37
2018-02-06T21:11:25.790Z,58.09
2018-02-06T21:13:51.792Z,58.72
2018-02-06T21:16:17.757Z,59.05
2018-02-06T21:18:43.727Z,57.63
2018-02-06T21:21:09.703Z,56.27
2018-02-06T21:23:35.663Z,53.48
2018-02-06T21:26:01.676Z,54.37
2018-02-06T21:28:27.620Z,55.79
2018-02-06T21:30:53.566Z,56.07
2018-02-06T21:33:19.511Z,58.19
2018-02-06T21:35:45.441Z,58.44
2018-02-06T21:38:11.441Z,57.93
2018-02-06T21:40:37.371Z,58.31
2018-02-06T21:43:03.317Z,57.85
2018-02-06T21:45:29.281Z,57.75
2018-02-06T21:47:55.221Z,59.32
2018-02-06T21:50:21.162Z,59.69
2018-02-06T21:52:47.111Z,58.64
2018-02-06T21:55:13.051Z,58.98
2018-02-06T21:57:39.007Z,58.72
2018-02-06T22:00:04.927Z,59.81
2018-02-06T22:02:30.849Z,59.00
2018-02-06T22:04:56.784Z,59.16
2018-02-06T22:07:22.751Z,58.87
2018-02-06T22:09:48.688Z,59.00
2018-02-06T22:12:14.635Z,59.20
2018-02-06T22:14:40.564Z,60.06
2018-02-06T22:17:06.507Z,59.25
2018-02-06T22:19:32.473Z,59.87
2018-02-06T22:21:58.427Z,60.08
2018-02-06T22:24:24.387Z,60.84
2018-02-06T22:26:50.349Z,59.62
2018-02-06T22:29:16.293Z,58.79
2018-02-06T22:31:42.233Z,59.67
2018-02-06T22:34:08.201Z,60.49
2018-02-06T22:36:34.123Z,60.00
2018-02-06T22:39:00.089Z,59.35
2018-02-06T22:41:26.042Z,58.76
2018-02-06T22:43:52.027Z,59.62
2018-02-06T22:46:17.969Z,59.02
2018-02-06T22:48:43.947Z,60.03
2018-02-06T22:51:10.027Z,59.43
2018-02-06T22:53:36.051Z,59.27
2018-02-06T22:56:01.997Z,58.99
2018-02-06T22:58:27.993Z,60.37
2018-02-06T23:00:53.921Z,60.76
2018-02-06T23:03:19.871Z,60.84
2018-02-06T23:05:45.829Z,61.67
2018-02-06T23:08:11.841Z,61.65
2018-02-06T23:10:37.777Z,60.45
2018-02-06T23:13:03.750Z,59.74
2018-02-06T23:15:29.669Z,61.98
2018-02-06T23:17:55.643Z,61.48
2018-02-06T23:20:21.593Z,61.07
2018-02-06T23:22:47.533Z,61.41
2018-02-06T23:25:13.513Z,60.11
2018-02-06T23:27:39.462Z,60.23
2018-02-06T23:30:05.402Z,60.58
2018-02-06T23:32:31.351Z,60.88
2018-02-06T23:34:57.291Z,60.66
2018-02-06T23:37:23.322Z,61.46
2018-02-06T23:39:49.245Z,60.79
2018-02-06T23:42:15.281Z,61.04
2018-02-06T23:44:41.197Z,60.62
2018-02-06T23:47:07.146Z,61.19
2018-02-06T23:49:33.091Z,61.37
2018-02-06T23:51:59.012Z,60.48
2018-02-06T23:54:24.925Z,60.66
2018-02-06T23:56:50.899Z,60.77
2018-02-06T23:59:16.869Z,59.51
